Time;durP1;ratioP1;P1;durP2;ratioP2;P2;SDS_P1;SDS_P2;PMS_P1;PMS_P2;Temp;Humidity;BMP_temperature;BMP_pressure;BME280_temperature;BME280_humidity;BME280_pressure;Samples;Min_cycle;Max_cycle;Signal;HPM_P1;HPM_P2
2022/04/13 00:00:57;;;;;;;0.83;0.80;;;15.60;76.80;;;;;;5033277;28;20522;-65
2022/04/13 00:03:25;;;;;;;2.00;0.90;;;15.60;76.80;;;;;;5040654;28;20456;-66
2022/04/13 00:05:55;;;;;;;1.30;1.20;;;15.60;76.90;;;;;;5036032;28;20462;-67
2022/04/13 00:08:24;;;;;;;1.47;1.00;;;15.60;76.70;;;;;;5046533;28;20444;-67
2022/04/13 00:10:52;;;;;;;2.00;1.03;;;15.60;76.70;;;;;;5033593;28;20533;-66
2022/04/13 00:13:22;;;;;;;1.27;1.17;;;15.60;76.80;;;;;;5046182;28;20509;-66
2022/04/13 00:15:50;;;;;;;1.40;1.30;;;15.60;76.90;;;;;;5039028;28;20467;-66
2022/04/13 00:18:21;;;;;;;1.30;1.00;;;15.60;76.80;;;;;;5030272;28;20479;-66
2022/04/13 00:20:49;;;;;;;2.10;1.30;;;15.70;77.00;;;;;;5033027;28;21046;-66
2022/04/13 00:23:19;;;;;;;1.87;1.30;;;15.60;76.90;;;;;;5029432;28;20455;-67
2022/04/13 00:25:47;;;;;;;1.30;1.03;;;15.60;76.80;;;;;;5038678;28;20466;-66
2022/04/13 00:28:16;;;;;;;2.70;0.97;;;15.60;76.90;;;;;;5038972;28;20428;-67
2022/04/13 00:30:44;;;;;;;1.73;1.20;;;15.60;76.80;;;;;;5036651;28;20486;-67
2022/04/13 00:33:13;;;;;;;2.03;1.30;;;15.60;76.80;;;;;;5041726;28;20553;-66
2022/04/13 00:35:41;;;;;;;1.93;1.40;;;15.60;76.80;;;;;;5031862;28;21003;-65
2022/04/13 00:38:09;;;;;;;2.10;0.90;;;15.60;76.80;;;;;;5045076;28;20435;-67
2022/04/13 00:40:40;;;;;;;4.57;1.13;;;15.60;76.90;;;;;;5047585;28;20632;-66
2022/04/13 00:43:09;;;;;;;1.80;1.13;;;15.60;76.90;;;;;;5050749;28;20795;-65
2022/04/13 00:45:37;;;;;;;4.10;1.50;;;15.60;77.00;;;;;;5048480;28;20499;-66
2022/04/13 00:48:06;;;;;;;1.17;1.07;;;15.60;76.90;;;;;;5028267;28;20952;-66
2022/04/13 00:50:34;;;;;;;1.87;1.17;;;15.60;76.80;;;;;;5035440;28;20479;-66
2022/04/13 00:53:06;;;;;;;1.67;1.20;;;15.60;76.90;;;;;;5042190;28;20475;-67
2022/04/13 00:55:41;;;;;;;1.40;1.00;;;15.60;76.90;;;;;;5046693;28;20490;-66
2022/04/13 00:58:14;;;;;;;1.87;1.47;;;15.60;77.10;;;;;;5025633;28;20432;-66
2022/04/13 01:00:48;;;;;;;1.80;1.30;;;15.60;77.10;;;;;;5051581;28;20475;-67
2022/04/13 01:03:18;;;;;;;1.93;0.93;;;15.70;77.20;;;;;;5038564;28;20463;-65
2022/04/13 01:05:47;;;;;;;2.07;1.20;;;15.60;77.10;;;;;;5034510;28;20505;-67
2022/04/13 01:08:17;;;;;;;2.07;1.00;;;15.60;77.10;;;;;;5033888;28;20998;-66
2022/04/13 01:10:48;;;;;;;1.73;1.10;;;15.60;77.10;;;;;;5033050;28;20485;-67
2022/04/13 01:13:17;;;;;;;1.23;1.13;;;15.60;77.00;;;;;;5039390;28;20463;-65
2022/04/13 01:15:45;;;;;;;1.10;0.90;;;15.60;77.10;;;;;;5044412;28;20964;-66
2022/04/13 01:18:14;;;;;;;2.50;1.27;;;15.60;77.10;;;;;;5034003;28;20490;-67
2022/04/13 01:20:52;;;;;;;2.27;1.10;;;15.60;78.40;;;;;;5049162;28;20472;-66
2022/04/13 01:23:23;;;;;;;1.30;1.20;;;15.70;77.30;;;;;;5030006;28;21029;-67
2022/04/13 01:25:52;;;;;;;1.00;0.90;;;15.60;77.20;;;;;;5039177;28;20459;-66
2022/04/13 01:28:20;;;;;;;2.00;1.50;;;15.70;77.30;;;;;;5047742;28;20849;-67
2022/04/13 01:30:48;;;;;;;2.27;1.27;;;15.60;77.30;;;;;;5040534;28;20459;-66
2022/04/13 01:33:17;;;;;;;1.13;1.03;;;15.60;77.30;;;;;;5034620;28;20873;-66
2022/04/13 01:35:45;;;;;;;1.57;1.17;;;15.60;77.40;;;;;;5034859;28;20515;-66
2022/04/13 01:38:13;;;;;;;1.70;1.10;;;15.60;77.40;;;;;;5041050;28;20469;-66
2022/04/13 01:40:44;;;;;;;2.33;1.23;;;15.60;77.40;;;;;;5032589;28;20562;-66
2022/04/13 01:43:12;;;;;;;4.37;1.33;;;15.60;77.40;;;;;;5042866;28;20443;-67
2022/04/13 01:45:40;;;;;;;2.20;1.50;;;15.60;77.40;;;;;;5037139;28;20464;-66
2022/04/13 01:48:09;;;;;;;2.27;1.30;;;15.60;77.40;;;;;;5039642;28;21033;-67
2022/04/13 01:50:37;;;;;;;2.13;1.10;;;15.60;77.50;;;;;;5038975;28;20499;-66
2022/04/13 01:53:06;;;;;;;2.20;1.60;;;15.60;77.50;;;;;;5041502;28;20483;-67
2022/04/13 01:55:34;;;;;;;1.93;1.33;;;15.60;77.50;;;;;;5039779;28;20464;-67
2022/04/13 01:58:04;;;;;;;2.13;1.50;;;15.60;77.60;;;;;;5041575;28;20514;-67
2022/04/13 02:00:32;;;;;;;2.07;1.10;;;15.60;77.50;;;;;;5039357;28;20873;-67
2022/04/13 02:03:00;;;;;;;2.70;1.40;;;15.60;77.60;;;;;;5041700;28;20468;-67
2022/04/13 02:05:29;;;;;;;3.10;1.53;;;15.60;77.70;;;;;;5037436;28;20460;-67
2022/04/13 02:07:57;;;;;;;4.73;1.30;;;15.60;77.70;;;;;;5041806;28;20957;-66
2022/04/13 02:10:25;;;;;;;1.73;1.13;;;15.60;77.80;;;;;;5027128;28;20471;-67
2022/04/13 02:12:53;;;;;;;1.50;1.30;;;15.60;77.90;;;;;;5043145;28;20959;-66
2022/04/13 02:15:23;;;;;;;2.07;1.30;;;15.60;78.00;;;;;;5045166;28;20983;-67
2022/04/13 02:17:51;;;;;;;2.77;1.53;;;15.60;77.90;;;;;;5034713;28;20692;-66
2022/04/13 02:20:19;;;;;;;3.07;1.20;;;15.60;78.00;;;;;;5044278;28;20483;-67
2022/04/13 02:22:47;;;;;;;3.73;1.30;;;15.60;78.00;;;;;;5038533;28;20432;-67
2022/04/13 02:25:16;;;;;;;1.10;0.80;;;15.60;78.10;;;;;;5041199;28;20476;-66
2022/04/13 02:27:44;;;;;;;1.67;1.10;;;15.60;78.10;;;;;;5052233;28;20829;-67
2022/04/13 02:30:13;;;;;;;2.43;1.10;;;15.60;78.10;;;;;;5050605;28;20566;-67
2022/04/13 02:32:44;;;;;;;2.13;1.60;;;15.60;78.10;;;;;;5025188;28;20451;-66
2022/04/13 02:35:13;;;;;;;1.73;1.00;;;15.60;78.10;;;;;;5047483;28;20505;-67
2022/04/13 02:37:43;;;;;;;1.50;1.20;;;15.60;78.70;;;;;;5037969;28;20435;-66
2022/04/13 02:40:13;;;;;;;3.07;1.20;;;15.60;78.20;;;;;;5037394;28;20517;-66
2022/04/13 02:42:41;;;;;;;2.20;1.33;;;15.60;78.30;;;;;;5035826;28;20428;-66
2022/04/13 02:45:10;;;;;;;3.33;1.20;;;15.60;78.40;;;;;;5041462;28;20463;-66
2022/04/13 02:47:38;;;;;;;2.30;1.30;;;15.60;78.40;;;;;;5050427;28;20848;-67
2022/04/13 02:50:09;;;;;;;3.13;1.60;;;15.60;78.40;;;;;;5023615;28;20478;-68
2022/04/13 02:52:38;;;;;;;1.70;1.30;;;15.60;78.40;;;;;;5044681;28;20430;-67
2022/04/13 02:55:08;;;;;;;1.67;1.30;;;15.60;78.50;;;;;;5041440;28;20471;-67
2022/04/13 02:57:36;;;;;;;1.37;1.10;;;15.60;78.60;;;;;;5046758;28;20502;-69
2022/04/13 03:00:06;;;;;;;2.87;1.50;;;15.60;78.60;;;;;;5033038;28;20479;-67
2022/04/13 03:02:34;;;;;;;3.07;1.77;;;15.60;78.40;;;;;;5037348;28;20917;-67
2022/04/13 03:05:03;;;;;;;2.53;1.60;;;15.60;78.50;;;;;;5042886;28;20500;-67
2022/04/13 03:07:32;;;;;;;2.40;1.27;;;15.60;78.50;;;;;;5046940;28;20443;-67
2022/04/13 03:10:01;;;;;;;2.83;1.50;;;15.60;78.50;;;;;;5032690;28;20703;-67
2022/04/13 03:12:29;;;;;;;1.97;1.27;;;15.60;78.60;;;;;;5039536;28;20427;-66
2022/04/13 03:14:57;;;;;;;1.50;1.03;;;15.60;78.70;;;;;;5036814;28;20504;-67
2022/04/13 03:17:25;;;;;;;1.57;1.00;;;15.60;79.90;;;;;;5038170;28;20492;-66
2022/04/13 03:19:53;;;;;;;2.50;1.20;;;15.60;78.60;;;;;;5029316;28;20496;-67
2022/04/13 03:22:23;;;;;;;3.13;1.60;;;15.60;78.70;;;;;;5041424;28;20538;-67
2022/04/13 03:24:52;;;;;;;1.73;1.40;;;15.50;78.60;;;;;;5036749;28;20597;-67
2022/04/13 03:27:21;;;;;;;1.60;1.40;;;15.60;78.90;;;;;;5032553;28;20455;-66
2022/04/13 03:29:49;;;;;;;1.43;1.30;;;15.60;78.80;;;;;;5038390;28;20474;-67
2022/04/13 03:32:17;;;;;;;2.03;1.60;;;15.60;78.80;;;;;;5029297;28;20988;-66
2022/04/13 03:34:45;;;;;;;4.70;2.43;;;15.60;78.80;;;;;;5040199;28;20471;-67
2022/04/13 03:37:13;;;;;;;1.60;1.43;;;15.50;78.80;;;;;;5043543;28;20842;-67
2022/04/13 03:39:41;;;;;;;1.53;1.20;;;15.50;78.70;;;;;;5054971;28;20475;-67
2022/04/13 03:42:11;;;;;;;3.67;1.30;;;15.50;78.80;;;;;;5039708;28;20794;-66
2022/04/13 03:44:39;;;;;;;1.70;1.50;;;15.60;78.90;;;;;;5030927;28;20464;-66
2022/04/13 03:47:07;;;;;;;4.53;1.40;;;15.50;78.90;;;;;;5027272;28;20437;-66
2022/04/13 03:49:35;;;;;;;2.90;1.47;;;15.50;78.80;;;;;;5040638;28;20579;-66
2022/04/13 03:52:04;;;;;;;1.50;1.20;;;15.50;78.80;;;;;;5042098;28;20434;-66
2022/04/13 03:54:33;;;;;;;2.30;1.17;;;15.50;78.80;;;;;;5029480;28;20478;-66
2022/04/13 03:57:01;;;;;;;1.40;0.97;;;15.60;80.10;;;;;;5051226;28;20782;-68
2022/04/13 03:59:30;;;;;;;3.10;1.37;;;15.50;78.80;;;;;;5039834;28;20472;-68
2022/04/13 04:01:58;;;;;;;2.03;1.30;;;15.50;78.90;;;;;;5032951;28;20841;-66
2022/04/13 04:04:26;;;;;;;1.73;1.23;;;15.50;78.90;;;;;;5034843;28;20486;-67
2022/04/13 04:06:54;;;;;;;2.13;1.63;;;15.50;78.80;;;;;;5036094;28;20432;-67
2022/04/13 04:09:22;;;;;;;1.30;1.20;;;15.50;78.90;;;;;;5016349;28;20497;-67
2022/04/13 04:11:51;;;;;;;1.20;1.00;;;15.50;78.90;;;;;;5045265;28;20555;-67
2022/04/13 04:14:19;;;;;;;1.43;0.90;;;15.50;78.90;;;;;;5043695;28;20799;-67
2022/04/13 04:16:48;;;;;;;1.07;0.97;;;15.50;78.90;;;;;;5040721;28;20443;-67
2022/04/13 04:19:16;;;;;;;1.20;1.03;;;15.50;79.00;;;;;;5044111;28;20475;-67
2022/04/13 04:21:44;;;;;;;1.53;1.27;;;15.50;79.00;;;;;;5036711;28;20530;-67
2022/04/13 04:24:12;;;;;;;2.57;1.13;;;15.50;79.10;;;;;;5037327;28;20846;-65
2022/04/13 04:26:43;;;;;;;1.20;1.10;;;15.50;79.10;;;;;;5039334;28;20513;-66
2022/04/13 04:29:11;;;;;;;1.17;1.07;;;15.50;79.20;;;;;;5044192;28;20478;-66
2022/04/13 04:34:24;;;;;;;2.03;1.40;;;15.50;79.20;;;;;;5030360;28;20818;-68
2022/04/13 04:36:52;;;;;;;1.57;1.10;;;15.50;79.30;;;;;;5038712;28;20443;-68
2022/04/13 04:39:21;;;;;;;2.17;1.20;;;15.50;79.30;;;;;;5029483;28;20858;-67
2022/04/13 04:41:49;;;;;;;1.60;1.07;;;15.50;79.40;;;;;;5052345;28;20481;-67
2022/04/13 04:44:17;;;;;;;1.40;1.00;;;15.50;79.40;;;;;;5035524;28;20961;-66
2022/04/13 04:46:45;;;;;;;1.77;1.13;;;15.50;79.30;;;;;;5045236;28;20835;-67
2022/04/13 04:49:14;;;;;;;1.37;1.23;;;15.50;79.80;;;;;;5045183;28;20485;-67
2022/04/13 04:51:43;;;;;;;1.23;1.00;;;15.50;79.80;;;;;;5040668;28;20432;-66
2022/04/13 04:54:11;;;;;;;2.23;1.10;;;15.50;79.80;;;;;;5033645;28;21064;-67
2022/04/13 04:56:40;;;;;;;2.17;1.30;;;15.50;79.90;;;;;;5040680;28;20825;-67
2022/04/13 04:59:08;;;;;;;1.57;1.00;;;15.50;79.80;;;;;;5038430;28;21186;-67
2022/04/13 05:01:37;;;;;;;1.40;1.30;;;15.50;79.70;;;;;;5047306;28;20514;-66
2022/04/13 05:04:06;;;;;;;4.20;1.13;;;15.50;79.70;;;;;;5031453;28;20890;-67
2022/04/13 05:06:34;;;;;;;4.03;1.50;;;15.50;80.00;;;;;;5046129;28;20829;-66
2022/04/13 05:09:03;;;;;;;2.27;1.20;;;15.50;79.90;;;;;;5038821;28;20450;-65
2022/04/13 05:11:31;;;;;;;2.20;1.40;;;15.50;79.90;;;;;;5040915;28;20478;-67
2022/04/13 05:14:00;;;;;;;2.03;0.90;;;15.50;80.10;;;;;;5035781;28;20460;-67
2022/04/13 05:16:28;;;;;;;2.20;1.20;;;15.50;80.40;;;;;;5043849;28;20455;-67
2022/04/13 05:18:56;;;;;;;1.87;1.30;;;15.50;80.40;;;;;;5029700;28;21008;-67
2022/04/13 05:21:24;;;;;;;2.20;1.10;;;15.50;80.30;;;;;;5043145;28;20957;-67
2022/04/13 05:23:52;;;;;;;2.50;1.43;;;15.50;80.20;;;;;;5048778;28;20459;-67
2022/04/13 05:26:22;;;;;;;4.33;1.23;;;15.50;80.20;;;;;;5042712;28;20984;-67
2022/04/13 05:28:50;;;;;;;2.43;1.37;;;15.40;80.00;;;;;;5040525;28;20949;-67
2022/04/13 05:31:18;;;;;;;1.60;1.27;;;15.50;80.10;;;;;;5032536;28;20452;-67
2022/04/13 05:33:46;;;;;;;1.70;1.57;;;15.50;80.00;;;;;;5032194;28;20456;-66
2022/04/13 05:36:14;;;;;;;1.60;1.40;;;15.50;80.10;;;;;;5048465;28;20471;-67
2022/04/13 05:38:43;;;;;;;4.63;2.33;;;15.50;80.10;;;;;;5034591;28;20503;-67
2022/04/13 05:41:11;;;;;;;1.60;1.40;;;15.40;80.20;;;;;;5047856;28;20471;-67
2022/04/13 05:43:40;;;;;;;2.80;1.63;;;15.40;81.40;;;;;;5051560;28;20960;-67
2022/04/13 05:46:08;;;;;;;1.50;1.40;;;15.40;80.20;;;;;;5039451;28;20989;-67
2022/04/13 05:48:36;;;;;;;2.93;1.40;;;15.40;81.50;;;;;;5044107;28;20443;-67
2022/04/13 05:51:04;;;;;;;3.20;1.70;;;15.40;80.30;;;;;;5026020;28;20468;-66
2022/04/13 05:53:32;;;;;;;1.90;1.40;;;15.40;80.30;;;;;;5036003;28;20507;-67
2022/04/13 05:56:01;;;;;;;1.63;1.53;;;15.40;80.30;;;;;;5040179;28;20479;-67
2022/04/13 05:58:29;;;;;;;3.20;1.50;;;15.40;80.30;;;;;;5046087;28;21251;-67
2022/04/13 06:00:59;;;;;;;2.37;1.40;;;15.50;80.50;;;;;;5037129;28;20471;-66
2022/04/13 06:03:27;;;;;;;2.40;1.10;;;15.50;80.50;;;;;;5032167;28;21036;-67
2022/04/13 06:06:09;;;;;;;1.53;1.17;;;15.40;80.40;;;;;;5034380;28;20910;-66
2022/04/13 06:08:37;;;;;;;1.77;1.03;;;15.40;80.50;;;;;;5038634;28;20830;-68
2022/04/13 06:11:05;;;;;;;1.87;1.13;;;15.40;80.50;;;;;;5035969;28;20468;-67
2022/04/13 06:13:33;;;;;;;4.20;1.67;;;15.40;80.40;;;;;;5046730;28;20483;-67
2022/04/13 06:16:03;;;;;;;2.57;1.60;;;15.50;80.90;;;;;;5049438;28;20980;-67
2022/04/13 06:18:31;;;;;;;1.63;1.50;;;15.40;81.10;;;;;;5033803;28;20496;-67
2022/04/13 06:20:59;;;;;;;1.83;1.50;;;15.40;81.70;;;;;;5033657;28;20524;-67
2022/04/13 06:23:27;;;;;;;3.47;1.50;;;15.40;82.00;;;;;;5030225;28;20483;-66
2022/04/13 06:25:55;;;;;;;1.97;1.50;;;15.50;82.10;;;;;;5030472;28;20468;-65
2022/04/13 06:28:24;;;;;;;5.50;1.57;;;15.50;82.10;;;;;;5047025;28;20790;-66
2022/04/13 06:30:52;;;;;;;1.67;1.23;;;15.40;81.90;;;;;;5036782;28;20475;-66
2022/04/13 06:33:21;;;;;;;1.73;1.10;;;15.50;82.00;;;;;;5043396;28;20947;-67
2022/04/13 06:35:49;;;;;;;3.00;1.03;;;15.50;81.60;;;;;;5042533;28;20469;-66
2022/04/13 06:38:17;;;;;;;2.20;1.10;;;15.50;81.70;;;;;;5026689;28;20794;-66
2022/04/13 06:40:45;;;;;;;1.03;0.80;;;15.50;81.50;;;;;;5042377;28;20471;-66
2022/04/13 06:43:14;;;;;;;2.10;0.93;;;15.50;81.50;;;;;;5036663;28;20451;-66
2022/04/13 06:45:42;;;;;;;1.70;0.90;;;15.50;81.40;;;;;;5050921;28;20524;-65
2022/04/13 06:48:10;;;;;;;1.00;0.90;;;15.50;81.40;;;;;;5045067;28;20451;-66
2022/04/13 06:50:40;;;;;;;1.67;0.93;;;15.50;81.20;;;;;;5032534;28;20463;-67
2022/04/13 06:53:08;;;;;;;1.50;1.03;;;15.50;81.10;;;;;;5031829;28;20452;-67
2022/04/13 06:55:39;;;;;;;1.13;0.87;;;15.50;81.00;;;;;;5026188;28;20448;-67
2022/04/13 06:58:07;;;;;;;2.50;1.10;;;15.50;80.90;;;;;;5043657;28;20444;-66
2022/04/13 07:00:35;;;;;;;1.20;1.10;;;15.50;80.80;;;;;;5034675;28;20472;-66
2022/04/13 07:03:03;;;;;;;1.77;1.20;;;15.50;80.80;;;;;;5032202;28;20880;-67
2022/04/13 07:05:40;;;;;;;1.30;1.00;;;15.50;80.70;;;;;;5028040;28;20469;-66
2022/04/13 07:08:09;;;;;;;1.00;0.90;;;15.60;80.80;;;;;;5035218;28;20955;-66
2022/04/13 07:10:37;;;;;;;1.20;1.10;;;15.60;80.60;;;;;;5028048;28;20500;-65
2022/04/13 07:13:11;;;;;;;1.67;1.30;;;15.60;80.60;;;;;;5040333;28;20800;-67
2022/04/13 07:15:40;;;;;;;1.00;0.90;;;15.60;80.50;;;;;;5043387;28;20469;-67
2022/04/13 07:18:09;;;;;;;2.63;1.07;;;15.60;81.80;;;;;;5041541;28;20467;-67
2022/04/13 07:20:37;;;;;;;1.00;0.90;;;15.60;80.50;;;;;;5043691;28;20469;-66
2022/04/13 07:23:06;;;;;;;1.03;0.90;;;15.60;80.40;;;;;;5036698;28;20503;-66
2022/04/13 07:25:35;;;;;;;1.00;0.80;;;15.60;80.40;;;;;;5026741;28;20499;-67
2022/04/13 07:28:03;;;;;;;2.60;1.27;;;15.60;80.40;;;;;;5045158;28;20439;-67
2022/04/13 07:30:32;;;;;;;1.20;1.00;;;15.60;80.40;;;;;;5043382;28;20479;-68
2022/04/13 07:33:01;;;;;;;1.87;1.23;;;15.60;80.60;;;;;;5025717;28;20978;-67
2022/04/13 07:35:31;;;;;;;1.80;1.00;;;15.60;80.50;;;;;;5038831;28;20559;-66
2022/04/13 07:37:59;;;;;;;1.70;1.10;;;15.60;80.40;;;;;;5039688;28;20501;-66
2022/04/13 07:40:29;;;;;;;1.20;1.10;;;15.60;80.50;;;;;;5037376;28;20533;-66
2022/04/13 07:42:57;;;;;;;1.87;1.40;;;15.60;80.40;;;;;;5044236;28;20478;-66
2022/04/13 07:45:26;;;;;;;1.50;1.30;;;15.60;80.50;;;;;;5039396;28;20526;-67
2022/04/13 07:47:54;;;;;;;2.43;1.10;;;15.70;81.90;;;;;;5045958;28;20955;-66
2022/04/13 07:50:22;;;;;;;1.57;1.20;;;15.70;80.60;;;;;;5025827;28;20473;-66
2022/04/13 07:52:50;;;;;;;1.73;1.53;;;15.70;80.70;;;;;;5046846;28;20508;-67
2022/04/13 07:55:18;;;;;;;2.00;1.57;;;15.60;80.50;;;;;;5044793;28;20467;-67
2022/04/13 07:57:48;;;;;;;2.53;1.20;;;15.70;80.70;;;;;;5037930;28;20503;-67
2022/04/13 08:00:17;;;;;;;1.83;1.17;;;15.70;80.60;;;;;;5035468;28;20484;-67
2022/04/13 08:02:45;;;;;;;3.17;1.53;;;15.70;80.70;;;;;;5027167;28;20449;-66
2022/04/13 08:05:14;;;;;;;3.03;1.33;;;15.70;80.70;;;;;;5020753;28;20905;-66
2022/04/13 08:07:43;;;;;;;1.20;1.00;;;15.70;80.70;;;;;;5031365;28;20436;-65
2022/04/13 08:10:11;;;;;;;3.47;1.90;;;15.70;81.40;;;;;;5013195;28;20460;-67
2022/04/13 08:12:40;;;;;;;1.77;1.20;;;15.70;80.60;;;;;;5011912;28;20429;-65
2022/04/13 08:15:11;;;;;;;2.10;1.57;;;15.60;80.50;;;;;;5014367;28;20967;-66
2022/04/13 08:17:40;;;;;;;1.87;1.40;;;15.70;80.50;;;;;;5023395;28;20464;-66
2022/04/13 08:20:12;;;;;;;1.80;1.30;;;15.70;81.80;;;;;;5033176;28;20814;-67
2022/04/13 08:22:41;;;;;;;3.03;1.50;;;15.70;80.50;;;;;;5040505;28;20527;-65
2022/04/13 08:25:10;;;;;;;2.30;1.63;;;15.70;80.40;;;;;;5038350;28;20471;-65
2022/04/13 08:27:43;;;;;;;1.73;1.10;;;15.70;80.50;;;;;;5031069;28;20506;-67
2022/04/13 08:30:14;;;;;;;1.43;1.33;;;15.70;80.40;;;;;;5040504;28;20471;-65
2022/04/13 08:32:43;;;;;;;1.37;1.23;;;15.70;80.50;;;;;;5032646;28;20525;-66
2022/04/13 08:35:11;;;;;;;2.93;1.80;;;15.70;80.50;;;;;;5042510;28;20521;-66
2022/04/13 08:37:40;;;;;;;2.53;1.20;;;15.70;80.50;;;;;;5038202;28;20505;-65
2022/04/13 08:40:11;;;;;;;2.90;1.30;;;15.70;81.10;;;;;;5020396;28;20971;-67
2022/04/13 08:42:46;;;;;;;1.30;1.10;;;15.70;80.50;;;;;;5043020;28;20443;-66
2022/04/13 08:45:22;;;;;;;1.83;1.40;;;15.80;80.60;;;;;;5031063;28;20496;-67
2022/04/13 08:47:56;;;;;;;2.03;1.33;;;15.80;80.70;;;;;;5036235;28;20473;-65
2022/04/13 08:50:27;;;;;;;1.97;1.37;;;15.80;80.60;;;;;;5038236;28;20463;-67
2022/04/13 08:52:58;;;;;;;1.50;1.27;;;15.80;80.60;;;;;;5042551;28;20435;-67
2022/04/13 08:55:29;;;;;;;1.50;1.40;;;15.80;80.70;;;;;;5040520;28;20522;-66
2022/04/13 08:58:14;;;;;;;3.53;1.47;;;15.80;80.70;;;;;;5031223;28;20455;-65
2022/04/13 09:00:55;;;;;;;1.53;1.33;;;15.80;80.80;;;;;;5032901;28;20526;-66
2022/04/13 09:03:36;;;;;;;1.50;1.30;;;15.80;80.70;;;;;;5023923;28;20816;-66
2022/04/13 09:06:06;;;;;;;2.07;1.30;;;15.80;80.70;;;;;;5016776;28;20464;-66
2022/04/13 09:08:40;;;;;;;2.40;1.20;;;15.80;80.80;;;;;;5045982;28;20483;-66
2022/04/13 09:11:09;;;;;;;2.33;1.40;;;15.80;80.80;;;;;;5042150;28;20478;-66
2022/04/13 09:13:38;;;;;;;2.10;1.13;;;15.80;80.80;;;;;;5046576;28;20965;-67
2022/04/13 09:16:09;;;;;;;2.47;1.57;;;15.80;80.80;;;;;;5035944;28;20471;-66
2022/04/13 09:18:37;;;;;;;1.70;1.60;;;15.80;80.90;;;;;;5050518;28;20941;-66
2022/04/13 09:21:05;;;;;;;1.57;1.10;;;15.80;80.80;;;;;;5037316;28;20905;-65
2022/04/13 09:23:33;;;;;;;3.57;1.47;;;15.80;80.80;;;;;;5036261;28;20518;-65
2022/04/13 09:26:04;;;;;;;2.73;1.27;;;15.80;80.90;;;;;;5041458;28;20495;-66
2022/04/13 09:28:32;;;;;;;1.13;1.00;;;15.80;81.00;;;;;;5030120;28;20784;-67
2022/04/13 09:31:01;;;;;;;1.40;1.20;;;15.80;81.00;;;;;;5035981;28;20472;-67
2022/04/13 09:33:31;;;;;;;3.57;1.40;;;15.80;81.00;;;;;;5030671;28;20465;-67
2022/04/13 09:35:59;;;;;;;1.67;1.30;;;15.80;81.00;;;;;;5038165;28;20569;-66
2022/04/13 09:38:28;;;;;;;1.60;1.30;;;15.80;81.00;;;;;;5041805;28;20505;-66
2022/04/13 09:41:07;;;;;;;2.73;1.90;;;15.80;81.10;;;;;;5041658;28;20475;-67
2022/04/13 09:43:35;;;;;;;3.00;1.60;;;15.80;81.20;;;;;;5052030;28;20501;-66
2022/04/13 09:46:04;;;;;;;1.80;1.43;;;15.80;81.30;;;;;;5036555;28;20463;-66
2022/04/13 09:48:34;;;;;;;1.47;1.37;;;15.80;81.20;;;;;;5039557;28;20451;-66
2022/04/13 09:51:02;;;;;;;1.60;1.33;;;15.80;81.30;;;;;;5035669;28;20555;-66
2022/04/13 09:53:30;;;;;;;1.77;1.27;;;15.80;81.30;;;;;;5037757;28;20527;-66
2022/04/13 09:56:00;;;;;;;1.60;1.10;;;15.80;81.40;;;;;;5030593;28;20487;-65
2022/04/13 09:58:30;;;;;;;2.40;1.30;;;15.80;81.40;;;;;;5040564;28;21027;-66
2022/04/13 10:01:02;;;;;;;2.03;1.20;;;15.80;81.40;;;;;;5038108;28;20487;-65
2022/04/13 10:03:31;;;;;;;1.67;1.40;;;15.80;81.50;;;;;;5024258;28;20475;-65
2022/04/13 10:06:00;;;;;;;1.97;1.20;;;15.80;81.50;;;;;;5034839;28;20456;-67
2022/04/13 10:08:30;;;;;;;2.60;1.30;;;15.80;81.50;;;;;;5044034;28;20448;-66
2022/04/13 10:10:59;;;;;;;1.20;1.10;;;15.80;81.60;;;;;;5043488;28;20480;-68
2022/04/13 10:13:35;;;;;;;2.30;1.60;;;15.80;81.60;;;;;;5037961;28;20456;-65
2022/04/13 10:16:04;;;;;;;1.10;1.00;;;15.80;81.60;;;;;;5049160;28;20463;-66
2022/04/13 10:18:54;;;;;;;1.50;1.10;;;15.80;81.70;;;;;;5033847;28;20463;-65
2022/04/13 10:21:41;;;;;;;1.33;1.23;;;15.80;81.80;;;;;;5041536;28;20510;-66
2022/04/13 10:24:11;;;;;;;1.83;1.40;;;15.90;81.90;;;;;;5017982;28;20471;-66
2022/04/13 10:26:59;;;;;;;1.23;1.13;;;15.90;82.00;;;;;;5033118;28;20776;-67
2022/04/13 10:29:28;;;;;;;2.40;1.30;;;15.90;81.90;;;;;;5032441;28;20475;-66
2022/04/13 10:32:05;;;;;;;2.70;1.40;;;15.90;82.00;;;;;;5028918;28;20488;-66
2022/04/13 10:34:35;;;;;;;3.07;1.53;;;15.90;82.10;;;;;;5035988;28;20555;-66
2022/04/13 10:37:05;;;;;;;1.97;1.63;;;15.90;82.00;;;;;;5034650;28;20447;-66
2022/04/13 10:39:33;;;;;;;2.87;1.47;;;15.90;82.10;;;;;;5022344;28;20463;-66
2022/04/13 10:42:07;;;;;;;1.40;1.30;;;15.90;82.10;;;;;;5051141;28;20512;-65
2022/04/13 10:44:37;;;;;;;1.37;1.20;;;15.90;82.00;;;;;;5037924;28;20563;-66
2022/04/13 10:47:07;;;;;;;1.93;1.43;;;15.90;82.10;;;;;;5043929;28;20431;-65
2022/04/13 10:49:45;;;;;;;3.50;1.20;;;15.90;82.10;;;;;;5035197;28;20464;-66
2022/04/13 10:52:28;;;;;;;1.93;1.47;;;15.90;82.10;;;;;;5032693;28;20436;-67
2022/04/13 10:55:02;;;;;;;2.03;1.50;;;15.90;82.20;;;;;;5038471;28;21008;-66
2022/04/13 10:57:36;;;;;;;1.60;1.47;;;15.90;82.30;;;;;;5051666;28;20434;-66
2022/04/13 11:00:06;;;;;;;1.40;1.10;;;15.90;82.30;;;;;;5048398;28;20470;-66
2022/04/13 11:02:39;;;;;;;1.77;1.27;;;15.90;82.20;;;;;;5033397;28;20937;-65
2022/04/13 11:05:08;;;;;;;1.50;1.37;;;15.90;82.20;;;;;;5037735;28;20460;-67
2022/04/13 11:07:39;;;;;;;2.10;1.53;;;15.90;82.20;;;;;;5045715;28;20435;-66
2022/04/13 11:10:13;;;;;;;1.30;1.10;;;15.90;82.20;;;;;;5025066;28;20472;-67
2022/04/13 11:12:42;;;;;;;1.87;1.40;;;15.90;82.20;;;;;;5039019;28;20439;-66
2022/04/13 11:15:18;;;;;;;1.70;1.33;;;15.90;82.20;;;;;;5042067;28;20479;-65
2022/04/13 11:17:46;;;;;;;1.20;1.10;;;15.90;82.30;;;;;;5043388;28;20518;-64
2022/04/13 11:20:19;;;;;;;2.07;1.43;;;15.90;82.30;;;;;;5042057;28;20506;-66
2022/04/13 11:23:12;;;;;;;1.20;1.03;;;15.90;82.40;;;;;;5047760;28;20443;-66
2022/04/13 11:25:45;;;;;;;2.00;1.27;;;15.90;82.40;;;;;;5023680;28;20988;-66
2022/04/13 11:28:24;;;;;;;1.30;1.20;;;15.90;82.40;;;;;;5046054;28;20466;-66
2022/04/13 11:31:07;;;;;;;1.20;1.03;;;15.90;82.40;;;;;;5041430;28;20495;-64
2022/04/13 11:33:57;;;;;;;2.00;1.20;;;15.90;82.40;;;;;;5016961;28;20468;-66
2022/04/13 11:36:29;;;;;;;1.57;1.37;;;15.90;82.40;;;;;;5041948;28;21006;-65
2022/04/13 11:39:14;;;;;;;1.10;1.00;;;15.90;82.30;;;;;;5035361;28;20470;-66
2022/04/13 11:41:51;;;;;;;1.70;1.20;;;16.00;82.50;;;;;;5044387;28;20929;-66
2022/04/13 11:44:20;;;;;;;1.47;1.23;;;16.00;82.60;;;;;;5042722;28;20467;-66
2022/04/13 11:46:48;;;;;;;1.17;1.03;;;16.00;82.50;;;;;;5031370;28;20924;-67
2022/04/13 11:49:16;;;;;;;1.83;1.23;;;16.00;82.50;;;;;;5028719;28;21356;-66
2022/04/13 11:51:44;;;;;;;1.30;1.20;;;16.00;82.60;;;;;;5032683;28;20444;-66
2022/04/13 11:54:14;;;;;;;1.67;1.57;;;16.00;82.50;;;;;;5033129;28;20860;-65
2022/04/13 11:56:51;;;;;;;1.77;1.27;;;16.00;82.50;;;;;;5037617;28;21024;-65
2022/04/13 11:59:46;;;;;;;1.73;1.60;;;16.00;82.60;;;;;;5033077;28;20465;-65
2022/04/13 12:02:16;;;;;;;1.77;1.20;;;16.00;82.60;;;;;;5034860;28;20433;-66
2022/04/13 12:04:47;;;;;;;1.93;1.10;;;16.00;82.60;;;;;;5039134;28;20557;-66
2022/04/13 12:07:16;;;;;;;1.53;1.10;;;16.00;82.50;;;;;;5033075;28;20490;-65
2022/04/13 12:09:46;;;;;;;1.57;1.10;;;16.10;82.60;;;;;;5024418;28;20542;-66
2022/04/13 12:12:17;;;;;;;1.73;1.63;;;16.00;82.60;;;;;;5034955;28;20480;-65
2022/04/13 12:14:56;;;;;;;1.90;1.40;;;16.10;82.80;;;;;;5041930;28;20861;-67
2022/04/13 12:17:24;;;;;;;1.50;1.40;;;16.10;82.80;;;;;;5025480;28;20587;-66
2022/04/13 12:19:52;;;;;;;3.30;1.30;;;16.10;82.70;;;;;;5027749;28;20460;-66
2022/04/13 12:22:22;;;;;;;1.67;1.30;;;16.10;82.80;;;;;;5033677;28;20439;-66
2022/04/13 12:24:58;;;;;;;2.30;1.40;;;16.10;82.70;;;;;;5027678;28;20467;-65
2022/04/13 12:27:27;;;;;;;1.50;1.20;;;16.10;82.80;;;;;;5017297;28;20439;-66
2022/04/13 12:30:11;;;;;;;1.97;1.50;;;16.00;82.70;;;;;;5034511;28;20464;-66
2022/04/13 12:32:45;;;;;;;2.13;1.20;;;16.10;82.90;;;;;;5020975;28;20475;-66
2022/04/13 12:35:15;;;;;;;2.17;1.43;;;16.10;82.90;;;;;;5036174;28;21061;-64
2022/04/13 12:37:51;;;;;;;3.70;2.90;;;16.10;83.80;;;;;;5039324;28;21000;-67
2022/04/13 12:40:23;;;;;;;3.90;2.40;;;16.10;86.70;;;;;;5016404;28;20518;-66
2022/04/13 12:42:51;;;;;;;3.10;2.63;;;16.20;86.30;;;;;;5015452;28;20486;-67
2022/04/13 12:45:20;;;;;;;4.77;3.20;;;16.20;86.20;;;;;;5014672;28;20652;-66
2022/04/13 12:47:48;;;;;;;5.83;3.17;;;16.20;86.00;;;;;;5015214;28;20428;-67
2022/04/13 12:50:17;;;;;;;2.47;2.07;;;16.20;85.90;;;;;;5013640;28;20950;-67
2022/04/13 12:52:56;;;;;;;2.63;2.07;;;16.20;85.50;;;;;;5015037;28;20764;-66
2022/04/13 12:55:26;;;;;;;2.30;1.97;;;16.20;85.40;;;;;;5014212;28;20469;-67
2022/04/13 12:57:54;;;;;;;2.33;1.87;;;16.20;85.20;;;;;;5015144;28;20456;-67
2022/04/13 13:00:46;;;;;;;2.37;1.83;;;16.20;85.20;;;;;;5014492;28;20536;-67
2022/04/13 13:03:14;;;;;;;2.23;2.03;;;16.20;85.20;;;;;;5014453;28;20468;-67
2022/04/13 13:05:43;;;;;;;1.83;1.73;;;16.20;85.10;;;;;;5014080;28;20456;-67